sensor_id;sensor_type;location;lat;lon;timestamp;P1;durP1;ratioP1;P2;durP2;ratioP2
74626;SDS011;63132;52.268;5.192;2023-12-14T00:00:04;23.27;;;13.37;;
74626;SDS011;63132;52.268;5.192;2023-12-14T00:02:31;20.80;;;13.00;;
74626;SDS011;63132;52.268;5.192;2023-12-14T00:04:56;21.67;;;13.33;;
74626;SDS011;63132;52.268;5.192;2023-12-14T00:07:22;21.20;;;12.63;;
74626;SDS011;63132;52.268;5.192;2023-12-14T00:09:47;21.03;;;12.70;;
74626;SDS011;63132;52.268;5.192;2023-12-14T00:12:12;24.57;;;13.07;;
74626;SDS011;63132;52.268;5.192;2023-12-14T00:14:38;24.77;;;14.20;;
74626;SDS011;63132;52.268;5.192;2023-12-14T00:17:05;23.30;;;14.17;;
74626;SDS011;63132;52.268;5.192;2023-12-14T00:19:30;25.98;;;13.52;;
74626;SDS011;63132;52.268;5.192;2023-12-14T00:21:56;23.13;;;13.43;;
74626;SDS011;63132;52.268;5.192;2023-12-14T00:24:21;25.50;;;13.40;;
74626;SDS011;63132;52.268;5.192;2023-12-14T00:26:46;26.00;;;13.70;;
74626;SDS011;63132;52.268;5.192;2023-12-14T00:29:12;25.60;;;13.50;;
74626;SDS011;63132;52.268;5.192;2023-12-14T00:31:37;25.40;;;14.03;;
74626;SDS011;63132;52.268;5.192;2023-12-14T00:34:02;22.13;;;12.17;;
74626;SDS011;63132;52.268;5.192;2023-12-14T00:36:28;24.35;;;13.27;;
74626;SDS011;63132;52.268;5.192;2023-12-14T00:38:53;23.02;;;12.85;;
74626;SDS011;63132;52.268;5.192;2023-12-14T00:41:20;22.30;;;13.18;;
74626;SDS011;63132;52.268;5.192;2023-12-14T00:43:45;23.25;;;13.13;;
74626;SDS011;63132;52.268;5.192;2023-12-14T00:46:11;24.83;;;13.93;;
74626;SDS011;63132;52.268;5.192;2023-12-14T00:48:36;21.87;;;11.77;;
74626;SDS011;63132;52.268;5.192;2023-12-14T00:51:02;22.17;;;13.02;;
74626;SDS011;63132;52.268;5.192;2023-12-14T00:53:27;21.48;;;11.77;;
74626;SDS011;63132;52.268;5.192;2023-12-14T00:55:52;24.17;;;13.53;;
74626;SDS011;63132;52.268;5.192;2023-12-14T00:58:18;23.10;;;12.00;;
74626;SDS011;63132;52.268;5.192;2023-12-14T01:00:43;22.03;;;12.07;;
74626;SDS011;63132;52.268;5.192;2023-12-14T01:03:08;22.87;;;12.30;;
74626;SDS011;63132;52.268;5.192;2023-12-14T01:05:33;25.83;;;13.40;;
74626;SDS011;63132;52.268;5.192;2023-12-14T01:10:25;23.70;;;12.47;;
74626;SDS011;63132;52.268;5.192;2023-12-14T01:12:50;20.77;;;12.27;;
74626;SDS011;63132;52.268;5.192;2023-12-14T01:15:15;23.13;;;12.27;;
74626;SDS011;63132;52.268;5.192;2023-12-14T01:17:41;21.42;;;11.80;;
74626;SDS011;63132;52.268;5.192;2023-12-14T01:20:06;25.03;;;14.27;;
74626;SDS011;63132;52.268;5.192;2023-12-14T01:22:32;26.02;;;13.35;;
74626;SDS011;63132;52.268;5.192;2023-12-14T01:24:58;25.80;;;13.07;;
74626;SDS011;63132;52.268;5.192;2023-12-14T01:27:24;22.13;;;13.25;;
74626;SDS011;63132;52.268;5.192;2023-12-14T01:29:49;25.77;;;14.88;;
74626;SDS011;63132;52.268;5.192;2023-12-14T01:32:14;26.40;;;14.70;;
74626;SDS011;63132;52.268;5.192;2023-12-14T01:34:40;24.17;;;13.30;;
74626;SDS011;63132;52.268;5.192;2023-12-14T01:37:05;26.90;;;13.83;;
74626;SDS011;63132;52.268;5.192;2023-12-14T01:39:31;29.10;;;15.27;;
74626;SDS011;63132;52.268;5.192;2023-12-14T01:41:57;30.70;;;14.60;;
74626;SDS011;63132;52.268;5.192;2023-12-14T01:44:22;26.10;;;15.37;;
74626;SDS011;63132;52.268;5.192;2023-12-14T01:46:47;25.73;;;14.03;;
74626;SDS011;63132;52.268;5.192;2023-12-14T01:49:13;23.47;;;14.37;;
74626;SDS011;63132;52.268;5.192;2023-12-14T01:51:38;27.63;;;14.10;;
74626;SDS011;63132;52.268;5.192;2023-12-14T01:54:03;29.50;;;14.90;;
74626;SDS011;63132;52.268;5.192;2023-12-14T01:56:29;24.80;;;14.05;;
74626;SDS011;63132;52.268;5.192;2023-12-14T01:58:55;25.50;;;13.97;;
74626;SDS011;63132;52.268;5.192;2023-12-14T02:03:51;26.80;;;14.10;;
74626;SDS011;63132;52.268;5.192;2023-12-14T02:06:17;27.58;;;14.20;;
74626;SDS011;63132;52.268;5.192;2023-12-14T02:08:43;26.75;;;14.20;;
74626;SDS011;63132;52.268;5.192;2023-12-14T02:11:08;24.47;;;12.87;;
74626;SDS011;63132;52.268;5.192;2023-12-14T02:13:34;27.77;;;14.40;;
74626;SDS011;63132;52.268;5.192;2023-12-14T02:16:00;30.13;;;13.98;;
74626;SDS011;63132;52.268;5.192;2023-12-14T02:18:25;28.87;;;14.57;;
74626;SDS011;63132;52.268;5.192;2023-12-14T02:20:51;23.77;;;13.10;;
74626;SDS011;63132;52.268;5.192;2023-12-14T02:25:42;24.08;;;13.10;;
74626;SDS011;63132;52.268;5.192;2023-12-14T02:28:07;27.63;;;14.30;;
74626;SDS011;63132;52.268;5.192;2023-12-14T02:30:32;25.67;;;14.13;;
74626;SDS011;63132;52.268;5.192;2023-12-14T02:32:58;23.17;;;13.20;;
74626;SDS011;63132;52.268;5.192;2023-12-14T02:35:23;23.90;;;12.97;;
74626;SDS011;63132;52.268;5.192;2023-12-14T02:37:48;26.73;;;13.47;;
74626;SDS011;63132;52.268;5.192;2023-12-14T02:40:14;25.25;;;13.32;;
74626;SDS011;63132;52.268;5.192;2023-12-14T02:42:39;30.38;;;14.43;;
74626;SDS011;63132;52.268;5.192;2023-12-14T02:45:05;26.13;;;13.32;;
74626;SDS011;63132;52.268;5.192;2023-12-14T02:47:31;23.05;;;12.23;;
74626;SDS011;63132;52.268;5.192;2023-12-14T02:49:57;21.83;;;11.60;;
74626;SDS011;63132;52.268;5.192;2023-12-14T02:52:22;25.67;;;11.43;;
74626;SDS011;63132;52.268;5.192;2023-12-14T02:54:47;25.70;;;11.57;;
74626;SDS011;63132;52.268;5.192;2023-12-14T02:57:13;23.73;;;10.67;;
74626;SDS011;63132;52.268;5.192;2023-12-14T02:59:38;30.83;;;11.98;;
74626;SDS011;63132;52.268;5.192;2023-12-14T03:02:05;21.70;;;11.13;;
74626;SDS011;63132;52.268;5.192;2023-12-14T03:06:56;23.63;;;10.50;;
74626;SDS011;63132;52.268;5.192;2023-12-14T03:09:21;19.63;;;10.03;;
74626;SDS011;63132;52.268;5.192;2023-12-14T03:11:47;24.95;;;11.32;;
74626;SDS011;63132;52.268;5.192;2023-12-14T03:16:38;23.53;;;11.33;;
74626;SDS011;63132;52.268;5.192;2023-12-14T03:19:03;20.60;;;9.53;;
74626;SDS011;63132;52.268;5.192;2023-12-14T03:21:30;18.02;;;9.32;;
74626;SDS011;63132;52.268;5.192;2023-12-14T03:23:55;26.25;;;11.13;;
74626;SDS011;63132;52.268;5.192;2023-12-14T03:26:21;23.27;;;9.63;;
74626;SDS011;63132;52.268;5.192;2023-12-14T03:28:46;18.37;;;9.13;;
74626;SDS011;63132;52.268;5.192;2023-12-14T03:31:12;19.13;;;9.33;;
74626;SDS011;63132;52.268;5.192;2023-12-14T03:33:38;22.55;;;10.80;;
74626;SDS011;63132;52.268;5.192;2023-12-14T03:36:05;19.73;;;8.90;;
74626;SDS011;63132;52.268;5.192;2023-12-14T03:40:56;22.20;;;9.60;;
74626;SDS011;63132;52.268;5.192;2023-12-14T03:43:21;18.53;;;9.20;;
74626;SDS011;63132;52.268;5.192;2023-12-14T03:45:47;18.23;;;9.00;;
74626;SDS011;63132;52.268;5.192;2023-12-14T03:48:12;20.00;;;9.73;;
74626;SDS011;63132;52.268;5.192;2023-12-14T03:50:38;18.20;;;9.97;;
74626;SDS011;63132;52.268;5.192;2023-12-14T03:53:03;20.53;;;8.97;;
74626;SDS011;63132;52.268;5.192;2023-12-14T03:55:28;17.70;;;8.93;;
74626;SDS011;63132;52.268;5.192;2023-12-14T03:57:54;21.50;;;9.50;;
74626;SDS011;63132;52.268;5.192;2023-12-14T04:00:20;20.00;;;8.00;;
74626;SDS011;63132;52.268;5.192;2023-12-14T04:02:45;19.10;;;8.65;;
74626;SDS011;63132;52.268;5.192;2023-12-14T04:05:11;14.73;;;8.20;;
74626;SDS011;63132;52.268;5.192;2023-12-14T04:07:39;16.10;;;8.70;;
74626;SDS011;63132;52.268;5.192;2023-12-14T04:10:11;17.17;;;7.88;;
74626;SDS011;63132;52.268;5.192;2023-12-14T04:12:38;13.18;;;7.80;;
74626;SDS011;63132;52.268;5.192;2023-12-14T04:17:31;16.30;;;7.32;;
74626;SDS011;63132;52.268;5.192;2023-12-14T04:19:56;13.70;;;7.30;;
74626;SDS011;63132;52.268;5.192;2023-12-14T04:22:22;14.68;;;7.15;;
74626;SDS011;63132;52.268;5.192;2023-12-14T04:24:47;15.50;;;7.03;;
74626;SDS011;63132;52.268;5.192;2023-12-14T04:27:13;16.95;;;7.32;;
74626;SDS011;63132;52.268;5.192;2023-12-14T04:29:38;12.83;;;6.83;;
74626;SDS011;63132;52.268;5.192;2023-12-14T04:32:04;11.93;;;7.17;;
74626;SDS011;63132;52.268;5.192;2023-12-14T04:34:30;10.63;;;6.45;;
74626;SDS011;63132;52.268;5.192;2023-12-14T04:36:55;14.20;;;6.90;;
74626;SDS011;63132;52.268;5.192;2023-12-14T04:39:23;16.15;;;7.25;;
74626;SDS011;63132;52.268;5.192;2023-12-14T04:41:49;12.85;;;6.57;;
74626;SDS011;63132;52.268;5.192;2023-12-14T04:44:15;11.32;;;6.65;;
74626;SDS011;63132;52.268;5.192;2023-12-14T04:46:40;14.60;;;6.73;;
74626;SDS011;63132;52.268;5.192;2023-12-14T04:49:06;13.57;;;6.30;;
74626;SDS011;63132;52.268;5.192;2023-12-14T04:51:31;15.10;;;6.90;;
74626;SDS011;63132;52.268;5.192;2023-12-14T04:53:57;11.32;;;6.38;;
74626;SDS011;63132;52.268;5.192;2023-12-14T04:56:22;13.67;;;5.93;;
74626;SDS011;63132;52.268;5.192;2023-12-14T04:58:47;12.27;;;6.10;;
74626;SDS011;63132;52.268;5.192;2023-12-14T05:01:13;9.53;;;5.90;;
74626;SDS011;63132;52.268;5.192;2023-12-14T05:03:38;12.10;;;7.20;;
74626;SDS011;63132;52.268;5.192;2023-12-14T05:06:03;10.53;;;6.07;;
74626;SDS011;63132;52.268;5.192;2023-12-14T05:08:29;11.25;;;5.88;;
74626;SDS011;63132;52.268;5.192;2023-12-14T05:10:54;11.80;;;6.43;;
74626;SDS011;63132;52.268;5.192;2023-12-14T05:13:19;14.83;;;6.43;;
74626;SDS011;63132;52.268;5.192;2023-12-14T05:15:45;13.67;;;6.27;;
74626;SDS011;63132;52.268;5.192;2023-12-14T05:18:10;12.20;;;5.67;;
74626;SDS011;63132;52.268;5.192;2023-12-14T05:20:35;13.20;;;6.37;;
74626;SDS011;63132;52.268;5.192;2023-12-14T05:23:01;14.47;;;5.83;;
74626;SDS011;63132;52.268;5.192;2023-12-14T05:25:26;13.70;;;6.78;;
74626;SDS011;63132;52.268;5.192;2023-12-14T05:27:52;9.18;;;5.72;;
74626;SDS011;63132;52.268;5.192;2023-12-14T05:30:17;10.77;;;5.63;;
74626;SDS011;63132;52.268;5.192;2023-12-14T05:32:43;11.50;;;5.80;;
74626;SDS011;63132;52.268;5.192;2023-12-14T05:35:08;14.60;;;6.32;;
74626;SDS011;63132;52.268;5.192;2023-12-14T05:37:35;10.40;;;6.07;;
74626;SDS011;63132;52.268;5.192;2023-12-14T05:40:01;12.68;;;6.78;;
74626;SDS011;63132;52.268;5.192;2023-12-14T05:42:27;10.85;;;6.45;;
74626;SDS011;63132;52.268;5.192;2023-12-14T05:44:52;11.03;;;6.20;;
74626;SDS011;63132;52.268;5.192;2023-12-14T05:47:18;15.33;;;6.93;;
74626;SDS011;63132;52.268;5.192;2023-12-14T05:49:43;14.87;;;6.87;;
74626;SDS011;63132;52.268;5.192;2023-12-14T05:52:09;15.93;;;7.53;;
74626;SDS011;63132;52.268;5.192;2023-12-14T05:54:35;11.98;;;6.95;;
74626;SDS011;63132;52.268;5.192;2023-12-14T05:57:01;20.52;;;8.40;;
74626;SDS011;63132;52.268;5.192;2023-12-14T05:59:26;19.13;;;7.87;;
74626;SDS011;63132;52.268;5.192;2023-12-14T06:01:56;16.90;;;8.20;;
74626;SDS011;63132;52.268;5.192;2023-12-14T06:04:22;14.73;;;8.65;;
74626;SDS011;63132;52.268;5.192;2023-12-14T06:06:47;14.53;;;8.50;;
74626;SDS011;63132;52.268;5.192;2023-12-14T06:09:12;16.07;;;9.30;;
74626;SDS011;63132;52.268;5.192;2023-12-14T06:11:38;15.20;;;7.50;;
74626;SDS011;63132;52.268;5.192;2023-12-14T06:14:03;18.03;;;9.17;;
74626;SDS011;63132;52.268;5.192;2023-12-14T06:16:28;16.10;;;8.60;;
74626;SDS011;63132;52.268;5.192;2023-12-14T06:18:53;18.70;;;8.97;;
74626;SDS011;63132;52.268;5.192;2023-12-14T06:21:19;13.80;;;8.30;;
74626;SDS011;63132;52.268;5.192;2023-12-14T06:23:44;12.90;;;7.40;;
74626;SDS011;63132;52.268;5.192;2023-12-14T06:26:09;12.80;;;7.10;;
74626;SDS011;63132;52.268;5.192;2023-12-14T06:28:35;15.93;;;8.57;;
74626;SDS011;63132;52.268;5.192;2023-12-14T06:31:00;12.73;;;7.70;;
74626;SDS011;63132;52.268;5.192;2023-12-14T06:33:26;14.43;;;8.05;;
74626;SDS011;63132;52.268;5.192;2023-12-14T06:35:51;12.60;;;7.15;;
74626;SDS011;63132;52.268;5.192;2023-12-14T06:38:17;15.73;;;7.27;;
74626;SDS011;63132;52.268;5.192;2023-12-14T06:40:42;12.83;;;7.13;;
74626;SDS011;63132;52.268;5.192;2023-12-14T06:43:07;12.63;;;7.93;;
74626;SDS011;63132;52.268;5.192;2023-12-14T06:45:33;11.80;;;7.10;;
74626;SDS011;63132;52.268;5.192;2023-12-14T06:47:58;10.50;;;6.60;;
74626;SDS011;63132;52.268;5.192;2023-12-14T06:50:23;10.77;;;6.60;;
74626;SDS011;63132;52.268;5.192;2023-12-14T06:52:48;10.27;;;5.90;;
74626;SDS011;63132;52.268;5.192;2023-12-14T06:55:14;10.83;;;6.17;;
74626;SDS011;63132;52.268;5.192;2023-12-14T06:57:42;10.93;;;6.60;;
74626;SDS011;63132;52.268;5.192;2023-12-14T07:00:08;11.80;;;7.30;;
74626;SDS011;63132;52.268;5.192;2023-12-14T07:05:00;10.57;;;6.72;;
74626;SDS011;63132;52.268;5.192;2023-12-14T07:07:25;9.53;;;5.80;;
74626;SDS011;63132;52.268;5.192;2023-12-14T07:09:51;9.93;;;6.40;;
74626;SDS011;63132;52.268;5.192;2023-12-14T07:12:16;12.13;;;6.20;;
74626;SDS011;63132;52.268;5.192;2023-12-14T07:14:42;12.55;;;6.88;;
74626;SDS011;63132;52.268;5.192;2023-12-14T07:17:08;10.97;;;6.87;;
74626;SDS011;63132;52.268;5.192;2023-12-14T07:19:33;11.73;;;6.87;;
74626;SDS011;63132;52.268;5.192;2023-12-14T07:21:58;10.13;;;6.60;;
74626;SDS011;63132;52.268;5.192;2023-12-14T07:24:24;13.43;;;7.43;;
74626;SDS011;63132;52.268;5.192;2023-12-14T07:26:49;14.40;;;7.67;;
74626;SDS011;63132;52.268;5.192;2023-12-14T07:29:15;12.38;;;7.53;;
74626;SDS011;63132;52.268;5.192;2023-12-14T07:31:40;12.60;;;7.30;;
74626;SDS011;63132;52.268;5.192;2023-12-14T07:34:05;11.73;;;6.80;;
74626;SDS011;63132;52.268;5.192;2023-12-14T07:36:31;14.70;;;7.07;;
74626;SDS011;63132;52.268;5.192;2023-12-14T07:38:56;11.90;;;6.77;;
74626;SDS011;63132;52.268;5.192;2023-12-14T07:41:22;11.85;;;7.55;;
74626;SDS011;63132;52.268;5.192;2023-12-14T07:43:51;12.93;;;6.65;;
74626;SDS011;63132;52.268;5.192;2023-12-14T07:46:16;12.80;;;6.57;;
74626;SDS011;63132;52.268;5.192;2023-12-14T07:48:42;13.37;;;6.90;;
74626;SDS011;63132;52.268;5.192;2023-12-14T07:51:07;8.80;;;6.10;;
74626;SDS011;63132;52.268;5.192;2023-12-14T07:53:32;11.30;;;6.70;;
74626;SDS011;63132;52.268;5.192;2023-12-14T07:55:57;8.77;;;5.83;;
74626;SDS011;63132;52.268;5.192;2023-12-14T07:58:23;11.23;;;6.55;;
74626;SDS011;63132;52.268;5.192;2023-12-14T08:00:50;9.43;;;5.55;;
74626;SDS011;63132;52.268;5.192;2023-12-14T08:03:16;9.00;;;5.23;;
74626;SDS011;63132;52.268;5.192;2023-12-14T08:05:41;10.33;;;5.80;;
74626;SDS011;63132;52.268;5.192;2023-12-14T08:08:06;9.87;;;6.23;;
74626;SDS011;63132;52.268;5.192;2023-12-14T08:10:32;8.93;;;5.60;;
74626;SDS011;63132;52.268;5.192;2023-12-14T08:12:57;11.90;;;5.97;;
74626;SDS011;63132;52.268;5.192;2023-12-14T08:15:22;10.90;;;6.17;;
74626;SDS011;63132;52.268;5.192;2023-12-14T08:17:48;9.83;;;6.20;;
74626;SDS011;63132;52.268;5.192;2023-12-14T08:20:13;11.40;;;6.50;;
74626;SDS011;63132;52.268;5.192;2023-12-14T08:22:38;11.93;;;6.53;;
74626;SDS011;63132;52.268;5.192;2023-12-14T08:25:09;11.43;;;5.45;;
74626;SDS011;63132;52.268;5.192;2023-12-14T08:27:36;9.65;;;4.72;;
74626;SDS011;63132;52.268;5.192;2023-12-14T08:30:01;11.20;;;4.77;;
74626;SDS011;63132;52.268;5.192;2023-12-14T08:32:26;8.18;;;4.65;;
74626;SDS011;63132;52.268;5.192;2023-12-14T08:34:52;8.00;;;4.43;;
74626;SDS011;63132;52.268;5.192;2023-12-14T08:37:18;11.35;;;4.00;;
74626;SDS011;63132;52.268;5.192;2023-12-14T08:39:43;7.23;;;4.03;;
74626;SDS011;63132;52.268;5.192;2023-12-14T08:42:08;7.80;;;4.07;;
74626;SDS011;63132;52.268;5.192;2023-12-14T08:44:38;6.65;;;4.25;;
74626;SDS011;63132;52.268;5.192;2023-12-14T08:47:04;8.35;;;4.63;;
74626;SDS011;63132;52.268;5.192;2023-12-14T08:49:30;11.13;;;4.68;;
74626;SDS011;63132;52.268;5.192;2023-12-14T08:51:55;8.02;;;5.05;;
74626;SDS011;63132;52.268;5.192;2023-12-14T08:54:21;8.80;;;4.97;;
74626;SDS011;63132;52.268;5.192;2023-12-14T08:56:46;11.43;;;5.10;;
74626;SDS011;63132;52.268;5.192;2023-12-14T09:01:38;9.15;;;4.97;;
74626;SDS011;63132;52.268;5.192;2023-12-14T09:04:04;9.32;;;4.80;;
74626;SDS011;63132;52.268;5.192;2023-12-14T09:06:29;8.05;;;4.35;;
74626;SDS011;63132;52.268;5.192;2023-12-14T09:08:55;8.82;;;5.28;;
74626;SDS011;63132;52.268;5.192;2023-12-14T09:11:20;9.40;;;5.30;;
74626;SDS011;63132;52.268;5.192;2023-12-14T09:13:45;10.57;;;4.90;;
74626;SDS011;63132;52.268;5.192;2023-12-14T09:16:10;10.63;;;5.10;;
74626;SDS011;63132;52.268;5.192;2023-12-14T09:18:36;9.87;;;4.77;;
74626;SDS011;63132;52.268;5.192;2023-12-14T09:21:01;9.90;;;4.77;;
74626;SDS011;63132;52.268;5.192;2023-12-14T09:23:26;7.43;;;4.80;;
74626;SDS011;63132;52.268;5.192;2023-12-14T09:25:52;7.70;;;4.87;;
74626;SDS011;63132;52.268;5.192;2023-12-14T09:28:17;9.63;;;4.57;;
74626;SDS011;63132;52.268;5.192;2023-12-14T09:30:43;9.00;;;4.85;;
74626;SDS011;63132;52.268;5.192;2023-12-14T09:35:35;12.30;;;4.50;;
74626;SDS011;63132;52.268;5.192;2023-12-14T09:38:02;9.90;;;4.07;;
74626;SDS011;63132;52.268;5.192;2023-12-14T09:40:28;7.28;;;4.38;;
74626;SDS011;63132;52.268;5.192;2023-12-14T09:42:53;18.83;;;6.80;;
74626;SDS011;63132;52.268;5.192;2023-12-14T09:45:20;10.27;;;3.97;;
74626;SDS011;63132;52.268;5.192;2023-12-14T09:47:52;8.20;;;4.22;;
74626;SDS011;63132;52.268;5.192;2023-12-14T09:50:18;14.65;;;4.45;;
74626;SDS011;63132;52.268;5.192;2023-12-14T09:52:45;14.88;;;4.68;;
74626;SDS011;63132;52.268;5.192;2023-12-14T09:55:13;7.88;;;4.60;;
74626;SDS011;63132;52.268;5.192;2023-12-14T09:57:39;5.45;;;3.00;;
74626;SDS011;63132;52.268;5.192;2023-12-14T10:00:05;6.30;;;3.40;;
74626;SDS011;63132;52.268;5.192;2023-12-14T10:02:36;8.90;;;3.13;;
74626;SDS011;63132;52.268;5.192;2023-12-14T10:05:05;7.32;;;3.80;;
74626;SDS011;63132;52.268;5.192;2023-12-14T10:07:41;7.10;;;3.00;;
74626;SDS011;63132;52.268;5.192;2023-12-14T10:10:12;6.43;;;3.45;;
74626;SDS011;63132;52.268;5.192;2023-12-14T10:12:52;8.95;;;3.35;;
74626;SDS011;63132;52.268;5.192;2023-12-14T10:15:19;6.63;;;3.70;;
74626;SDS011;63132;52.268;5.192;2023-12-14T10:17:44;8.38;;;3.63;;
74626;SDS011;63132;52.268;5.192;2023-12-14T10:20:18;8.52;;;3.58;;
74626;SDS011;63132;52.268;5.192;2023-12-14T10:22:44;7.88;;;3.90;;
74626;SDS011;63132;52.268;5.192;2023-12-14T10:25:10;7.77;;;3.77;;
74626;SDS011;63132;52.268;5.192;2023-12-14T10:27:37;6.47;;;3.38;;
74626;SDS011;63132;52.268;5.192;2023-12-14T10:30:06;6.22;;;3.17;;
74626;SDS011;63132;52.268;5.192;2023-12-14T10:32:33;8.05;;;4.53;;
74626;SDS011;63132;52.268;5.192;2023-12-14T10:35:00;6.22;;;3.83;;
74626;SDS011;63132;52.268;5.192;2023-12-14T10:37:25;8.35;;;3.75;;
74626;SDS011;63132;52.268;5.192;2023-12-14T10:39:51;6.32;;;3.65;;
74626;SDS011;63132;52.268;5.192;2023-12-14T10:42:18;6.82;;;3.80;;
74626;SDS011;63132;52.268;5.192;2023-12-14T10:44:47;6.07;;;3.88;;
74626;SDS011;63132;52.268;5.192;2023-12-14T10:47:16;6.65;;;3.17;;
74626;SDS011;63132;52.268;5.192;2023-12-14T10:49:45;6.25;;;3.25;;
74626;SDS011;63132;52.268;5.192;2023-12-14T10:52:14;6.32;;;3.22;;
74626;SDS011;63132;52.268;5.192;2023-12-14T10:54:40;6.55;;;3.50;;
74626;SDS011;63132;52.268;5.192;2023-12-14T10:57:07;7.32;;;3.55;;
74626;SDS011;63132;52.268;5.192;2023-12-14T10:59:33;8.20;;;3.80;;
74626;SDS011;63132;52.268;5.192;2023-12-14T11:02:03;6.97;;;3.83;;
74626;SDS011;63132;52.268;5.192;2023-12-14T11:04:56;8.75;;;3.90;;
74626;SDS011;63132;52.268;5.192;2023-12-14T11:10:06;7.30;;;3.75;;
74626;SDS011;63132;52.268;5.192;2023-12-14T11:14:58;10.38;;;4.35;;
74626;SDS011;63132;52.268;5.192;2023-12-14T11:17:24;11.90;;;4.35;;
74626;SDS011;63132;52.268;5.192;2023-12-14T11:19:49;8.30;;;4.30;;
74626;SDS011;63132;52.268;5.192;2023-12-14T11:22:22;9.45;;;4.47;;
74626;SDS011;63132;52.268;5.192;2023-12-14T11:24:52;11.13;;;4.88;;
74626;SDS011;63132;52.268;5.192;2023-12-14T11:27:20;8.15;;;4.38;;
74626;SDS011;63132;52.268;5.192;2023-12-14T11:29:54;7.47;;;4.65;;
74626;SDS011;63132;52.268;5.192;2023-12-14T11:32:21;8.18;;;4.38;;
74626;SDS011;63132;52.268;5.192;2023-12-14T11:34:46;10.68;;;4.53;;
74626;SDS011;63132;52.268;5.192;2023-12-14T11:37:12;7.70;;;3.83;;
74626;SDS011;63132;52.268;5.192;2023-12-14T11:39:38;6.65;;;4.03;;
74626;SDS011;63132;52.268;5.192;2023-12-14T11:42:04;7.75;;;3.75;;
74626;SDS011;63132;52.268;5.192;2023-12-14T11:44:35;7.72;;;3.95;;
74626;SDS011;63132;52.268;5.192;2023-12-14T11:47:01;8.70;;;4.38;;
74626;SDS011;63132;52.268;5.192;2023-12-14T11:49:27;11.32;;;4.13;;
74626;SDS011;63132;52.268;5.192;2023-12-14T11:51:54;7.22;;;4.07;;
74626;SDS011;63132;52.268;5.192;2023-12-14T11:54:20;7.22;;;3.83;;
74626;SDS011;63132;52.268;5.192;2023-12-14T11:56:47;7.90;;;3.90;;
74626;SDS011;63132;52.268;5.192;2023-12-14T11:59:14;6.57;;;4.28;;
74626;SDS011;63132;52.268;5.192;2023-12-14T12:01:53;8.63;;;4.60;;
74626;SDS011;63132;52.268;5.192;2023-12-14T12:04:23;11.45;;;4.03;;
74626;SDS011;63132;52.268;5.192;2023-12-14T12:06:49;7.78;;;3.83;;
74626;SDS011;63132;52.268;5.192;2023-12-14T12:09:31;9.80;;;4.45;;
74626;SDS011;63132;52.268;5.192;2023-12-14T12:12:01;9.57;;;4.85;;
74626;SDS011;63132;52.268;5.192;2023-12-14T12:14:28;6.53;;;3.88;;
74626;SDS011;63132;52.268;5.192;2023-12-14T12:16:53;10.45;;;4.95;;
74626;SDS011;63132;52.268;5.192;2023-12-14T12:19:20;10.23;;;4.03;;
74626;SDS011;63132;52.268;5.192;2023-12-14T12:21:45;10.27;;;4.65;;
74626;SDS011;63132;52.268;5.192;2023-12-14T12:24:11;7.72;;;4.60;;
74626;SDS011;63132;52.268;5.192;2023-12-14T12:26:36;8.67;;;4.80;;
74626;SDS011;63132;52.268;5.192;2023-12-14T12:29:01;8.90;;;4.77;;
74626;SDS011;63132;52.268;5.192;2023-12-14T12:31:29;12.68;;;4.97;;
74626;SDS011;63132;52.268;5.192;2023-12-14T12:33:54;11.77;;;6.97;;
74626;SDS011;63132;52.268;5.192;2023-12-14T12:36:19;12.83;;;5.90;;
74626;SDS011;63132;52.268;5.192;2023-12-14T12:38:46;13.43;;;6.80;;
74626;SDS011;63132;52.268;5.192;2023-12-14T12:41:11;13.43;;;6.63;;
74626;SDS011;63132;52.268;5.192;2023-12-14T12:43:36;13.20;;;6.50;;
74626;SDS011;63132;52.268;5.192;2023-12-14T12:46:02;12.53;;;6.00;;
74626;SDS011;63132;52.268;5.192;2023-12-14T12:48:27;13.48;;;6.78;;
74626;SDS011;63132;52.268;5.192;2023-12-14T12:50:53;12.20;;;6.40;;
74626;SDS011;63132;52.268;5.192;2023-12-14T12:53:18;11.53;;;6.90;;
74626;SDS011;63132;52.268;5.192;2023-12-14T12:55:43;11.77;;;6.10;;
74626;SDS011;63132;52.268;5.192;2023-12-14T12:58:09;14.23;;;6.85;;
74626;SDS011;63132;52.268;5.192;2023-12-14T13:00:35;11.33;;;6.73;;
74626;SDS011;63132;52.268;5.192;2023-12-14T13:03:02;9.60;;;5.35;;
74626;SDS011;63132;52.268;5.192;2023-12-14T13:05:27;10.30;;;7.20;;
74626;SDS011;63132;52.268;5.192;2023-12-14T13:07:53;12.57;;;6.30;;
74626;SDS011;63132;52.268;5.192;2023-12-14T13:10:19;11.90;;;6.78;;
74626;SDS011;63132;52.268;5.192;2023-12-14T13:12:47;13.68;;;6.60;;
74626;SDS011;63132;52.268;5.192;2023-12-14T13:15:13;15.38;;;7.53;;
74626;SDS011;63132;52.268;5.192;2023-12-14T13:17:38;11.98;;;6.93;;
74626;SDS011;63132;52.268;5.192;2023-12-14T13:20:04;13.52;;;6.95;;
74626;SDS011;63132;52.268;5.192;2023-12-14T13:22:32;13.70;;;6.78;;
74626;SDS011;63132;52.268;5.192;2023-12-14T13:24:57;11.32;;;6.80;;
74626;SDS011;63132;52.268;5.192;2023-12-14T13:27:23;14.02;;;7.90;;
74626;SDS011;63132;52.268;5.192;2023-12-14T13:29:50;12.32;;;7.35;;
74626;SDS011;63132;52.268;5.192;2023-12-14T13:32:15;16.35;;;8.57;;
74626;SDS011;63132;52.268;5.192;2023-12-14T13:34:40;14.43;;;8.23;;
74626;SDS011;63132;52.268;5.192;2023-12-14T13:37:06;15.00;;;7.37;;
74626;SDS011;63132;52.268;5.192;2023-12-14T13:39:33;11.57;;;7.10;;
74626;SDS011;63132;52.268;5.192;2023-12-14T13:42:00;12.32;;;7.53;;
74626;SDS011;63132;52.268;5.192;2023-12-14T13:44:25;14.43;;;8.03;;
74626;SDS011;63132;52.268;5.192;2023-12-14T13:46:52;14.68;;;7.72;;
74626;SDS011;63132;52.268;5.192;2023-12-14T13:49:17;12.47;;;7.00;;
74626;SDS011;63132;52.268;5.192;2023-12-14T13:51:43;13.80;;;7.50;;
74626;SDS011;63132;52.268;5.192;2023-12-14T13:54:08;16.85;;;7.88;;
74626;SDS011;63132;52.268;5.192;2023-12-14T13:56:33;13.90;;;7.83;;
74626;SDS011;63132;52.268;5.192;2023-12-14T13:58:59;17.93;;;8.17;;
74626;SDS011;63132;52.268;5.192;2023-12-14T14:01:24;12.17;;;7.00;;
74626;SDS011;63132;52.268;5.192;2023-12-14T14:03:50;13.25;;;7.85;;
74626;SDS011;63132;52.268;5.192;2023-12-14T14:06:15;15.83;;;7.53;;
74626;SDS011;63132;52.268;5.192;2023-12-14T14:08:40;17.17;;;8.37;;
74626;SDS011;63132;52.268;5.192;2023-12-14T14:11:06;12.88;;;7.28;;
74626;SDS011;63132;52.268;5.192;2023-12-14T14:13:31;15.27;;;7.45;;
74626;SDS011;63132;52.268;5.192;2023-12-14T14:15:57;12.82;;;7.15;;
74626;SDS011;63132;52.268;5.192;2023-12-14T14:18:23;12.97;;;7.67;;
74626;SDS011;63132;52.268;5.192;2023-12-14T14:20:48;13.67;;;7.87;;
74626;SDS011;63132;52.268;5.192;2023-12-14T14:23:13;12.47;;;7.40;;
74626;SDS011;63132;52.268;5.192;2023-12-14T14:25:38;12.57;;;6.90;;
74626;SDS011;63132;52.268;5.192;2023-12-14T14:28:04;16.35;;;7.13;;
74626;SDS011;63132;52.268;5.192;2023-12-14T14:30:30;14.50;;;7.65;;
74626;SDS011;63132;52.268;5.192;2023-12-14T14:32:56;13.63;;;7.83;;
74626;SDS011;63132;52.268;5.192;2023-12-14T14:35:22;17.20;;;8.13;;
74626;SDS011;63132;52.268;5.192;2023-12-14T14:37:48;14.15;;;7.38;;
74626;SDS011;63132;52.268;5.192;2023-12-14T14:40:15;16.70;;;11.30;;
74626;SDS011;63132;52.268;5.192;2023-12-14T14:42:41;18.63;;;9.07;;
74626;SDS011;63132;52.268;5.192;2023-12-14T14:45:08;18.63;;;8.32;;
74626;SDS011;63132;52.268;5.192;2023-12-14T14:47:35;15.50;;;8.65;;
74626;SDS011;63132;52.268;5.192;2023-12-14T14:50:01;15.15;;;7.68;;
74626;SDS011;63132;52.268;5.192;2023-12-14T14:52:31;13.60;;;7.90;;
74626;SDS011;63132;52.268;5.192;2023-12-14T14:54:57;16.63;;;7.97;;
74626;SDS011;63132;52.268;5.192;2023-12-14T14:57:23;19.00;;;8.63;;